Overview Statistics Trail Chart Weather Telemetry Raw packets
 

This is the latest recevied weather packets stored in our database for station/object KLEMETTI. If no packets are shown the sender has not sent any weather packets the latest 10 day(s).

<< 2 3 4 5 6 7 8 >>
Time Temp. Humidity Pressure Rain* Wind** Luminosity Snow
1788519890 16.67° C 57% 998 hPa 0 mm - - -
1788518689 16.67° C 57% 998.1 hPa 0 mm - - -
1788517489 16.67° C 60% 998.2 hPa 0 mm - - -
1788514880 16.67° C 59% 998.3 hPa 0 mm - - -
1788513890 16.67° C 62% 998.3 hPa 0 mm - - -
1788512480 17.22° C 63% 998.3 hPa 0 mm - - -
1788510289 16.11° C 71% 998.5 hPa 0 mm - - -
1788509088 15.56° C 70% 998.4 hPa 0 mm - - -
1788507890 16.11° C 73% 998.4 hPa 0 mm - - -
1788505487 14.44° C 80% 998.5 hPa 0 mm - - -
1788503088 12.78° C 86% 998.6 hPa 0 mm - - -
1788501889 9.44° C 98% 998.9 hPa 0 mm - - -
1788500688 10° C 96% 998.8 hPa 0 mm - - -
1788499486 9.44° C 99% 998.9 hPa 0 mm - - -
1788498306 8.33° C 100% 999.1 hPa 0 mm - - -
1788497087 7.78° C 100% 999.1 hPa 0 mm - - -
1788495887 7.22° C 100% 999.2 hPa 0 mm - - -
1788494688 6.67° C 100% 999.3 hPa 0 mm - - -
1788493487 7.22° C 100% 999.3 hPa 0 mm - - -
1788492289 7.78° C 100% 999.4 hPa 0 mm - - -
1788491090 7.78° C 100% 999.5 hPa 0 mm - - -
1788489888 7.78° C 100% 999.7 hPa 0 mm - - -
1788488478 8.33° C 99% 999.8 hPa 0 mm - - -
1788487487 8.33° C 100% 999.7 hPa 0 mm - - -
1788486080 8.33° C 99% 999.8 hPa 0 mm - - -

* Rain latest hour (hover to see other rain measurements)
** Current wind speed in m/s (hover to see current wind gust speed)